createdAt,value
2019-06-27T00:00:37.863Z,16.43
2019-06-27T00:03:05.903Z,16.47
2019-06-27T00:05:34.036Z,16.60
2019-06-27T00:08:02.151Z,17.07
2019-06-27T00:10:32.056Z,17.03
2019-06-27T00:12:59.816Z,16.23
2019-06-27T00:15:27.713Z,17.03
2019-06-27T00:17:55.719Z,16.50
2019-06-27T00:20:23.664Z,15.80
2019-06-27T00:22:51.559Z,16.77
2019-06-27T00:25:19.627Z,17.17
2019-06-27T00:27:47.544Z,16.90
2019-06-27T00:30:15.518Z,16.20
2019-06-27T00:32:43.443Z,16.97
2019-06-27T00:35:11.527Z,17.53
2019-06-27T00:37:39.719Z,17.37
2019-06-27T00:40:07.874Z,18.30
2019-06-27T00:42:35.829Z,17.87
2019-06-27T00:45:04.029Z,18.47
2019-06-27T00:47:31.903Z,17.03
2019-06-27T00:49:59.861Z,16.97
2019-06-27T00:52:27.835Z,16.53
2019-06-27T00:54:55.713Z,17.27
2019-06-27T00:57:23.719Z,16.80
2019-06-27T00:59:51.642Z,16.87
2019-06-27T01:02:19.570Z,18.17
2019-06-27T01:04:47.550Z,17.90
2019-06-27T01:07:15.598Z,17.50
2019-06-27T01:09:43.527Z,17.97
2019-06-27T01:12:11.519Z,15.90
2019-06-27T01:14:39.434Z,17.27
2019-06-27T01:17:07.488Z,17.20
2019-06-27T01:19:35.397Z,15.20
2019-06-27T01:22:03.440Z,17.47
2019-06-27T01:24:31.377Z,17.40
2019-06-27T01:26:59.323Z,17.80
2019-06-27T01:29:27.398Z,16.43
2019-06-27T01:31:55.373Z,16.30
2019-06-27T01:34:23.281Z,17.63
2019-06-27T01:36:51.414Z,16.53
2019-06-27T01:39:19.389Z,19.03
2019-06-27T01:41:47.493Z,17.87
2019-06-27T01:44:32.998Z,18.20
2019-06-27T01:47:01.579Z,17.60
2019-06-27T01:49:29.551Z,17.80
2019-06-27T01:51:57.483Z,18.23
2019-06-27T01:54:25.593Z,17.77
2019-06-27T01:56:53.681Z,16.90
2019-06-27T01:59:21.604Z,19.77
2019-06-27T02:01:49.523Z,18.67
2019-06-27T02:04:17.459Z,18.70
2019-06-27T02:06:45.418Z,17.80
2019-06-27T02:09:13.423Z,19.73
2019-06-27T02:11:41.344Z,20.97
2019-06-27T02:14:09.365Z,16.30
2019-06-27T02:16:37.356Z,17.87
2019-06-27T02:19:05.305Z,16.77
2019-06-27T02:21:33.343Z,17.13
2019-06-27T02:24:01.276Z,17.30
2019-06-27T02:26:29.203Z,17.43
2019-06-27T02:28:57.107Z,18.33
2019-06-27T02:31:25.137Z,16.40
2019-06-27T02:33:53.244Z,17.70
2019-06-27T02:36:21.229Z,17.67
2019-06-27T02:38:49.302Z,18.23
2019-06-27T02:41:17.364Z,18.73
2019-06-27T02:43:45.252Z,15.70
2019-06-27T02:46:13.194Z,17.50
2019-06-27T02:48:41.165Z,18.17
2019-06-27T02:51:09.099Z,17.27
2019-06-27T02:53:37.149Z,17.77
2019-06-27T02:56:05.261Z,17.10
2019-06-27T02:58:33.276Z,18.10
2019-06-27T03:01:01.272Z,18.53
2019-06-27T03:03:29.280Z,17.83
2019-06-27T03:05:57.240Z,17.57
2019-06-27T03:08:25.248Z,19.40
2019-06-27T03:10:53.179Z,17.80
2019-06-27T03:13:21.213Z,18.60
2019-06-27T03:15:49.137Z,18.90
2019-06-27T03:18:17.253Z,17.40
2019-06-27T03:20:45.313Z,18.63
2019-06-27T03:23:13.280Z,17.90
2019-06-27T03:25:41.392Z,17.70
2019-06-27T03:28:09.451Z,18.10
2019-06-27T03:30:37.590Z,17.80
2019-06-27T03:33:05.621Z,18.77
2019-06-27T03:35:33.584Z,17.10
2019-06-27T03:38:01.619Z,16.60
2019-06-27T03:40:30.587Z,19.60
2019-06-27T03:42:58.661Z,17.60
2019-06-27T03:45:26.656Z,18.10
2019-06-27T03:47:54.616Z,19.53
2019-06-27T03:50:22.549Z,18.57
2019-06-27T03:52:50.500Z,17.33
2019-06-27T03:55:18.460Z,19.63
2019-06-27T03:57:46.588Z,18.40
2019-06-27T04:00:17.040Z,18.07
2019-06-27T04:02:44.981Z,17.50
2019-06-27T04:05:13.080Z,19.10
2019-06-27T04:07:41.198Z,19.47
2019-06-27T04:10:09.230Z,18.10
2019-06-27T04:12:37.390Z,18.27
2019-06-27T04:15:05.913Z,16.23
2019-06-27T04:17:33.826Z,18.97
2019-06-27T04:20:01.798Z,17.57
2019-06-27T04:22:29.729Z,17.47
2019-06-27T04:24:57.833Z,17.30
2019-06-27T04:27:25.781Z,17.50
2019-06-27T04:29:53.850Z,17.10
2019-06-27T04:32:21.905Z,16.13
2019-06-27T04:34:49.942Z,16.47
2019-06-27T04:37:17.911Z,17.47
2019-06-27T04:39:45.831Z,16.57
2019-06-27T04:42:13.728Z,18.03
2019-06-27T04:44:41.743Z,17.50
2019-06-27T04:47:09.771Z,15.90
2019-06-27T04:49:37.669Z,15.53
2019-06-27T04:52:05.629Z,17.43
2019-06-27T04:54:33.724Z,14.63
2019-06-27T04:57:01.723Z,16.50
2019-06-27T04:59:29.930Z,15.43
2019-06-27T05:01:57.966Z,16.77
2019-06-27T05:04:25.958Z,15.80
2019-06-27T05:06:53.914Z,15.87
2019-06-27T05:09:22.031Z,15.47
2019-06-27T05:11:49.983Z,15.57
2019-06-27T05:14:17.949Z,14.67
2019-06-27T05:16:45.885Z,14.77
2019-06-27T05:19:13.999Z,15.47
2019-06-27T05:21:42.027Z,14.33
2019-06-27T05:24:09.934Z,15.10
2019-06-27T05:26:37.905Z,13.83
2019-06-27T05:29:05.976Z,14.47
2019-06-27T05:31:33.914Z,13.23
2019-06-27T05:34:01.932Z,14.40
2019-06-27T05:36:29.924Z,14.20
2019-06-27T05:38:57.926Z,13.00
2019-06-27T05:41:25.845Z,11.67
2019-06-27T05:43:53.872Z,14.20
2019-06-27T05:46:21.824Z,12.60
2019-06-27T05:48:49.810Z,11.80
2019-06-27T05:51:17.690Z,13.03
2019-06-27T05:53:45.895Z,12.70
2019-06-27T05:56:13.967Z,11.97
2019-06-27T05:58:41.909Z,12.90
2019-06-27T06:01:09.997Z,10.90
2019-06-27T06:03:37.901Z,12.77
2019-06-27T06:06:05.780Z,12.07
2019-06-27T06:08:33.691Z,13.73
2019-06-27T06:11:01.649Z,13.10
2019-06-27T06:13:29.620Z,12.13
2019-06-27T06:16:00.850Z,13.13
2019-06-27T06:18:27.258Z,13.00
2019-06-27T06:20:55.275Z,11.77
2019-06-27T06:23:23.244Z,11.77
2019-06-27T06:25:51.161Z,11.30
2019-06-27T06:28:19.162Z,11.90
2019-06-27T06:30:47.139Z,11.57
2019-06-27T06:33:15.159Z,11.33
2019-06-27T06:35:43.112Z,11.67
2019-06-27T06:38:11.034Z,12.60
2019-06-27T06:40:39.005Z,14.03
2019-06-27T06:43:06.964Z,11.50
2019-06-27T06:45:35.012Z,11.70
2019-06-27T06:48:02.958Z,11.80
2019-06-27T06:50:30.887Z,11.30
2019-06-27T06:52:58.995Z,13.10
2019-06-27T06:55:26.889Z,10.67
2019-06-27T06:57:54.825Z,10.63
2019-06-27T07:00:22.833Z,10.80
2019-06-27T07:02:50.931Z,12.20
2019-06-27T07:05:18.903Z,12.03
2019-06-27T07:07:46.801Z,11.77
2019-06-27T07:10:14.822Z,10.97
2019-06-27T07:12:42.787Z,11.83
2019-06-27T07:15:10.689Z,11.50
2019-06-27T07:17:38.597Z,10.50
2019-06-27T07:20:06.971Z,10.63
2019-06-27T07:22:34.930Z,12.37
2019-06-27T07:25:02.922Z,11.20
2019-06-27T07:27:30.920Z,11.53
2019-06-27T07:29:58.934Z,11.20
2019-06-27T07:32:26.938Z,11.80
2019-06-27T07:34:54.917Z,10.80
2019-06-27T07:37:22.825Z,12.00
2019-06-27T07:39:50.814Z,12.50
2019-06-27T07:42:18.823Z,12.40
2019-06-27T07:44:46.778Z,12.97
2019-06-27T07:47:14.971Z,12.57
2019-06-27T07:49:42.935Z,12.97
2019-06-27T07:52:10.940Z,12.57
2019-06-27T07:54:39.269Z,12.10
2019-06-27T07:57:07.235Z,11.87
2019-06-27T07:59:35.178Z,12.27
2019-06-27T08:02:03.250Z,11.60
2019-06-27T08:04:31.149Z,11.93
2019-06-27T08:06:59.067Z,12.73
2019-06-27T08:09:27.173Z,11.10
2019-06-27T08:11:55.123Z,12.33
2019-06-27T08:14:23.074Z,11.27
2019-06-27T08:16:51.292Z,11.70
2019-06-27T08:19:19.347Z,12.10
2019-06-27T08:21:47.299Z,12.33
2019-06-27T08:24:15.161Z,12.40
2019-06-27T08:26:43.143Z,12.37
2019-06-27T08:29:11.112Z,13.60
2019-06-27T08:31:51.065Z,12.03
2019-06-27T08:34:08.897Z,12.57
2019-06-27T08:36:36.870Z,11.70
2019-06-27T08:39:05.779Z,13.80
2019-06-27T08:41:33.721Z,12.47
2019-06-27T08:44:01.760Z,12.03
2019-06-27T08:46:30.019Z,12.63
2019-06-27T08:48:58.223Z,12.90
2019-06-27T08:51:26.108Z,13.10
2019-06-27T08:53:54.756Z,11.80
2019-06-27T08:56:22.685Z,12.50
2019-06-27T08:58:50.628Z,12.33
2019-06-27T09:01:18.773Z,11.47
2019-06-27T09:03:46.746Z,13.30
2019-06-27T09:06:14.740Z,12.50
2019-06-27T09:08:42.633Z,13.27
2019-06-27T09:11:10.579Z,13.77
2019-06-27T09:13:38.471Z,13.73
2019-06-27T09:16:06.464Z,15.37
2019-06-27T09:18:34.517Z,14.20
2019-06-27T09:21:02.543Z,14.37
2019-06-27T09:23:30.464Z,14.20
2019-06-27T09:25:58.394Z,14.20
2019-06-27T09:28:26.451Z,13.57
2019-06-27T09:30:54.394Z,13.53
2019-06-27T09:33:22.340Z,15.70
2019-06-27T09:35:50.366Z,12.90
2019-06-27T09:38:18.274Z,13.83
2019-06-27T09:40:46.280Z,12.20
2019-06-27T09:43:14.242Z,13.00
2019-06-27T09:45:42.221Z,13.33
2019-06-27T09:48:10.203Z,11.93
2019-06-27T09:50:38.112Z,12.20
2019-06-27T09:53:05.997Z,11.80
2019-06-27T09:55:33.967Z,12.03
2019-06-27T09:58:01.983Z,11.90
2019-06-27T10:00:29.889Z,12.30
2019-06-27T10:02:58.041Z,12.13
2019-06-27T10:05:25.968Z,12.00
2019-06-27T10:07:53.922Z,12.80
2019-06-27T10:10:21.960Z,11.97
2019-06-27T10:12:50.006Z,11.87
2019-06-27T10:15:17.948Z,10.97
2019-06-27T10:17:45.984Z,11.00
2019-06-27T10:20:14.317Z,11.27
2019-06-27T10:22:42.270Z,10.47
2019-06-27T10:25:10.629Z,10.50
2019-06-27T10:27:38.607Z,11.67
2019-06-27T10:30:07.118Z,11.07
2019-06-27T10:32:35.233Z,9.80
2019-06-27T10:35:03.327Z,11.67
2019-06-27T10:37:31.313Z,10.60
2019-06-27T10:39:59.359Z,10.83
2019-06-27T10:42:27.307Z,10.70
2019-06-27T10:44:55.270Z,10.90
2019-06-27T10:47:23.274Z,10.23
2019-06-27T10:49:51.269Z,11.03
2019-06-27T10:52:19.175Z,11.10
2019-06-27T10:54:47.181Z,10.63
2019-06-27T10:57:15.215Z,11.77
2019-06-27T10:59:43.181Z,11.63
2019-06-27T11:02:11.104Z,10.70
2019-06-27T11:04:39.154Z,10.67
2019-06-27T11:07:07.105Z,10.17
2019-06-27T11:09:35.038Z,10.50
2019-06-27T11:12:03.015Z,9.10
2019-06-27T11:14:30.914Z,9.47
2019-06-27T11:16:58.897Z,8.20
2019-06-27T11:19:26.821Z,9.67
2019-06-27T11:21:54.760Z,8.67
2019-06-27T11:24:22.657Z,8.77
2019-06-27T11:26:50.560Z,8.77
2019-06-27T11:29:18.980Z,11.80
2019-06-27T11:31:47.071Z,9.10
2019-06-27T11:34:15.172Z,7.87
2019-06-27T11:36:46.462Z,7.60
2019-06-27T11:39:12.832Z,8.17
2019-06-27T11:41:40.744Z,7.97
2019-06-27T11:44:08.688Z,7.20
2019-06-27T11:46:36.618Z,6.63
2019-06-27T11:49:04.482Z,6.20
2019-06-27T11:51:32.418Z,6.13
2019-06-27T11:54:00.344Z,6.87
2019-06-27T11:56:28.313Z,6.00
2019-06-27T11:58:56.203Z,6.13
2019-06-27T12:01:24.154Z,6.20
2019-06-27T12:03:52.400Z,5.70
2019-06-27T12:06:20.366Z,5.93
2019-06-27T12:08:48.602Z,6.43
2019-06-27T12:11:16.530Z,5.80
2019-06-27T12:13:44.489Z,6.27
2019-06-27T12:16:12.498Z,5.70
2019-06-27T12:18:40.494Z,6.47
2019-06-27T12:21:08.506Z,4.87
2019-06-27T12:23:36.647Z,9.73
2019-06-27T12:26:04.734Z,5.40
2019-06-27T12:28:32.630Z,5.03
2019-06-27T12:31:00.810Z,6.07
2019-06-27T12:33:29.546Z,3.90
2019-06-27T12:35:57.605Z,5.13
2019-06-27T12:38:25.840Z,3.80
2019-06-27T12:40:53.986Z,3.47
2019-06-27T12:43:22.441Z,3.43
2019-06-27T12:45:50.574Z,4.93
2019-06-27T12:48:18.525Z,6.43
2019-06-27T12:50:46.554Z,3.90
2019-06-27T12:53:14.538Z,3.73
2019-06-27T12:55:42.511Z,3.23
2019-06-27T12:58:10.506Z,4.47
2019-06-27T13:00:38.508Z,3.50
2019-06-27T13:03:06.438Z,3.30
2019-06-27T13:05:34.395Z,4.67
2019-06-27T13:08:02.284Z,3.20
2019-06-27T13:10:35.636Z,3.43
2019-06-27T13:13:04.298Z,3.67
2019-06-27T13:15:32.349Z,3.40
2019-06-27T13:18:00.365Z,2.93
2019-06-27T13:20:28.350Z,2.90
2019-06-27T13:22:56.271Z,2.30
2019-06-27T13:25:24.181Z,2.37
2019-06-27T13:27:52.263Z,6.50
2019-06-27T13:30:20.348Z,2.80
2019-06-27T13:32:48.349Z,2.97
2019-06-27T13:35:16.340Z,2.80
2019-06-27T13:37:44.432Z,6.23
2019-06-27T13:40:12.465Z,5.00
2019-06-27T13:42:40.480Z,2.97
2019-06-27T13:45:08.639Z,3.10
2019-06-27T13:47:36.648Z,3.13
2019-06-27T13:50:04.897Z,6.00
2019-06-27T13:52:32.888Z,2.90
2019-06-27T13:55:00.832Z,5.33
2019-06-27T13:57:28.780Z,3.40
2019-06-27T13:59:57.391Z,2.40
2019-06-27T14:02:25.348Z,3.07
2019-06-27T14:04:57.496Z,3.20
2019-06-27T14:07:23.705Z,2.77
2019-06-27T14:09:56.886Z,2.73
2019-06-27T14:12:21.413Z,6.90
2019-06-27T14:14:59.232Z,3.03
2019-06-27T14:17:19.010Z,3.00
2019-06-27T14:19:50.674Z,3.33
2019-06-27T14:22:33.021Z,2.80
2019-06-27T14:24:46.387Z,3.90
2019-06-27T14:27:14.364Z,2.87
2019-06-27T14:29:42.368Z,3.10
2019-06-27T14:32:10.260Z,2.63
2019-06-27T14:34:38.461Z,3.40
2019-06-27T14:37:06.422Z,5.60
2019-06-27T14:39:35.022Z,2.57
2019-06-27T14:42:03.018Z,2.43
2019-06-27T14:44:30.971Z,2.47
2019-06-27T14:46:58.914Z,4.50
2019-06-27T14:49:26.917Z,2.33
2019-06-27T14:51:54.938Z,2.63
2019-06-27T14:54:23.417Z,2.47
2019-06-27T14:56:51.726Z,2.27
2019-06-27T14:59:19.772Z,2.93
2019-06-27T15:01:47.803Z,2.30
2019-06-27T15:04:15.855Z,2.50
2019-06-27T15:06:43.836Z,3.93
2019-06-27T15:09:11.832Z,2.50
2019-06-27T15:11:39.887Z,4.47
2019-06-27T15:14:07.939Z,2.67
2019-06-27T15:16:35.908Z,2.73
2019-06-27T15:19:03.897Z,5.13
2019-06-27T15:21:31.797Z,3.63
2019-06-27T15:23:59.740Z,2.50
2019-06-27T15:26:27.748Z,8.57
2019-06-27T15:28:55.756Z,2.20
2019-06-27T15:31:23.726Z,4.67
2019-06-27T15:33:51.650Z,2.07
2019-06-27T15:36:19.585Z,3.93
2019-06-27T15:38:47.526Z,3.70
2019-06-27T15:41:15.507Z,3.10
2019-06-27T15:43:43.544Z,2.40
2019-06-27T15:46:11.521Z,3.67
2019-06-27T15:48:39.450Z,3.70
2019-06-27T15:51:07.411Z,1.50
2019-06-27T15:53:35.530Z,2.00
2019-06-27T15:56:03.532Z,1.63
2019-06-27T15:58:31.565Z,1.57
2019-06-27T16:00:59.547Z,1.90
2019-06-27T16:03:27.563Z,2.73
2019-06-27T16:06:08.747Z,1.53
2019-06-27T16:08:25.373Z,2.00
2019-06-27T16:10:53.265Z,2.00
2019-06-27T16:13:21.220Z,1.30
2019-06-27T16:15:49.345Z,1.37
2019-06-27T16:18:17.233Z,2.17
2019-06-27T16:20:45.184Z,0.87
2019-06-27T16:23:13.184Z,1.00
2019-06-27T16:25:41.115Z,5.03
2019-06-27T16:28:09.041Z,1.70
2019-06-27T16:30:36.923Z,0.90
2019-06-27T16:33:04.992Z,1.13
2019-06-27T16:35:32.959Z,1.40
2019-06-27T16:38:00.841Z,1.70
2019-06-27T16:40:28.822Z,1.47
2019-06-27T16:42:56.812Z,3.80
2019-06-27T16:45:24.773Z,1.33
2019-06-27T16:47:52.684Z,1.17
2019-06-27T16:50:20.611Z,1.30
2019-06-27T16:52:48.535Z,1.00
2019-06-27T16:55:16.487Z,1.17
2019-06-27T16:57:44.455Z,1.10
2019-06-27T17:00:12.612Z,1.57
2019-06-27T17:02:40.828Z,1.10
2019-06-27T17:05:08.711Z,1.43
2019-06-27T17:07:36.586Z,2.50
2019-06-27T17:10:04.825Z,1.43
2019-06-27T17:12:32.700Z,2.30
2019-06-27T17:15:00.622Z,1.43
2019-06-27T17:17:28.522Z,4.93
2019-06-27T17:19:56.430Z,6.93
2019-06-27T17:22:24.394Z,7.77
2019-06-27T17:24:52.284Z,14.10
2019-06-27T17:27:20.414Z,11.30
2019-06-27T17:29:48.308Z,3.70
2019-06-27T17:32:16.161Z,3.67
2019-06-27T17:34:44.101Z,3.63
2019-06-27T17:37:12.040Z,2.60
2019-06-27T17:39:39.980Z,2.17
2019-06-27T17:42:07.922Z,1.63
2019-06-27T17:44:35.913Z,1.63
2019-06-27T17:47:03.914Z,4.90
2019-06-27T17:49:31.778Z,2.10
2019-06-27T17:51:59.672Z,1.23
2019-06-27T17:54:27.567Z,2.53
2019-06-27T17:56:55.542Z,1.63
2019-06-27T17:59:23.390Z,2.63
2019-06-27T18:01:51.308Z,1.63
2019-06-27T18:04:19.246Z,0.80
2019-06-27T18:06:47.147Z,0.70
2019-06-27T18:09:35.659Z,1.00
2019-06-27T18:12:03.555Z,0.97
2019-06-27T18:14:31.456Z,0.93
2019-06-27T18:16:59.316Z,2.00
2019-06-27T18:19:27.178Z,1.37
2019-06-27T18:21:55.077Z,1.07
2019-06-27T18:24:22.936Z,1.30
2019-06-27T18:26:50.885Z,1.80
2019-06-27T18:29:18.818Z,2.10
2019-06-27T18:31:46.814Z,0.90
2019-06-27T18:34:14.699Z,1.50
2019-06-27T18:36:42.582Z,1.20
2019-06-27T18:39:10.515Z,1.17
2019-06-27T18:41:38.388Z,0.77
2019-06-27T18:44:07.746Z,2.03
2019-06-27T18:46:35.727Z,1.07
2019-06-27T18:49:03.653Z,1.63
2019-06-27T18:51:31.661Z,0.90
2019-06-27T18:54:01.050Z,1.37
2019-06-27T18:56:29.209Z,3.07
2019-06-27T18:58:57.230Z,0.87
2019-06-27T19:01:25.167Z,0.90
2019-06-27T19:03:53.202Z,0.90
2019-06-27T19:06:21.098Z,2.27
2019-06-27T19:08:49.136Z,3.03
2019-06-27T19:11:17.089Z,1.10
2019-06-27T19:13:45.188Z,1.37
2019-06-27T19:16:13.162Z,1.20
2019-06-27T19:18:44.648Z,1.57
2019-06-27T19:21:16.464Z,1.50
2019-06-27T19:23:53.109Z,1.10
2019-06-27T19:26:21.085Z,2.70
2019-06-27T19:28:49.058Z,1.50
2019-06-27T19:31:17.036Z,1.63
2019-06-27T19:33:45.021Z,1.03
2019-06-27T19:36:13.113Z,2.27
2019-06-27T19:38:41.067Z,1.50
2019-06-27T19:41:09.222Z,1.10
2019-06-27T19:43:37.238Z,1.70
2019-06-27T19:46:06.720Z,1.73
2019-06-27T19:48:34.658Z,2.07
2019-06-27T19:51:02.530Z,1.37
2019-06-27T19:53:30.919Z,0.97
2019-06-27T19:55:58.839Z,2.00
2019-06-27T19:58:26.781Z,2.23
2019-06-27T20:00:54.719Z,1.60
2019-06-27T20:03:22.699Z,1.90
2019-06-27T20:05:50.754Z,1.83
2019-06-27T20:08:20.118Z,2.00
2019-06-27T20:10:48.287Z,3.47
2019-06-27T20:13:16.262Z,1.37
2019-06-27T20:15:44.221Z,1.40
2019-06-27T20:18:12.073Z,2.10
2019-06-27T20:20:40.293Z,1.57
2019-06-27T20:23:08.220Z,1.27
2019-06-27T20:25:36.149Z,1.03
2019-06-27T20:28:04.123Z,1.47
2019-06-27T20:30:32.142Z,1.57
2019-06-27T20:33:00.150Z,1.90
2019-06-27T20:35:28.068Z,1.40
2019-06-27T20:37:55.999Z,1.30
2019-06-27T20:40:24.141Z,1.70
2019-06-27T20:42:52.174Z,2.27
2019-06-27T20:45:20.078Z,3.90
2019-06-27T20:47:49.645Z,3.13
2019-06-27T20:50:17.904Z,2.37
2019-06-27T20:52:46.082Z,6.30
2019-06-27T20:55:14.400Z,1.70
2019-06-27T20:57:42.410Z,2.90
2019-06-27T21:00:10.377Z,1.70
2019-06-27T21:02:38.353Z,1.40
2019-06-27T21:05:06.440Z,1.50
2019-06-27T21:07:34.515Z,1.57
2019-06-27T21:10:02.780Z,1.50
2019-06-27T21:12:30.789Z,2.17
2019-06-27T21:14:58.689Z,1.67
2019-06-27T21:17:26.577Z,1.40
2019-06-27T21:19:54.592Z,1.57
2019-06-27T21:22:22.535Z,2.10
2019-06-27T21:24:50.468Z,1.30
2019-06-27T21:27:18.455Z,2.13
2019-06-27T21:29:46.400Z,1.60
2019-06-27T21:32:30.174Z,2.20
2019-06-27T21:34:44.139Z,2.20
2019-06-27T21:37:12.074Z,2.83
2019-06-27T21:39:39.977Z,1.73
2019-06-27T21:42:07.972Z,2.00
2019-06-27T21:44:35.985Z,1.50
2019-06-27T21:47:03.868Z,2.10
2019-06-27T21:49:31.722Z,2.23
2019-06-27T21:51:59.668Z,1.53
2019-06-27T21:54:27.644Z,2.00
2019-06-27T21:56:55.702Z,1.40
2019-06-27T21:59:23.858Z,1.57
